sensor_id;sensor_type;location;lat;lon;timestamp;pressure;altitude;pressure_sealevel;temperature;humidity
70304;BME280;57712;48.752;11.348;2023-05-20T00:01:46;97618.66;;;13.19;100.00
70304;BME280;57712;48.752;11.348;2023-05-20T00:04:13;97625.19;;;13.09;100.00
70304;BME280;57712;48.752;11.348;2023-05-20T00:06:40;97611.97;;;13.04;100.00
70304;BME280;57712;48.752;11.348;2023-05-20T00:09:07;97614.72;;;13.04;100.00
70304;BME280;57712;48.752;11.348;2023-05-20T00:11:34;97612.81;;;13.01;100.00
70304;BME280;57712;48.752;11.348;2023-05-20T00:14:00;97609.75;;;12.99;100.00
70304;BME280;57712;48.752;11.348;2023-05-20T00:16:27;97611.47;;;12.93;100.00
70304;BME280;57712;48.752;11.348;2023-05-20T00:18:53;97602.81;;;12.94;100.00
70304;BME280;57712;48.752;11.348;2023-05-20T00:21:22;97608.28;;;12.94;100.00
70304;BME280;57712;48.752;11.348;2023-05-20T00:23:48;97614.56;;;12.95;100.00
70304;BME280;57712;48.752;11.348;2023-05-20T00:26:15;97606.66;;;12.97;100.00
70304;BME280;57712;48.752;11.348;2023-05-20T00:28:42;97607.00;;;12.99;100.00
70304;BME280;57712;48.752;11.348;2023-05-20T00:31:10;97604.94;;;13.03;100.00
70304;BME280;57712;48.752;11.348;2023-05-20T00:33:36;97604.06;;;13.06;100.00
70304;BME280;57712;48.752;11.348;2023-05-20T00:36:03;97603.38;;;13.02;100.00
70304;BME280;57712;48.752;11.348;2023-05-20T00:38:30;97597.78;;;13.06;100.00
70304;BME280;57712;48.752;11.348;2023-05-20T00:40:57;97593.84;;;13.07;100.00
70304;BME280;57712;48.752;11.348;2023-05-20T00:43:23;97588.44;;;13.03;100.00
70304;BME280;57712;48.752;11.348;2023-05-20T00:45:52;97587.22;;;13.04;100.00
70304;BME280;57712;48.752;11.348;2023-05-20T00:48:20;97589.53;;;13.06;100.00
70304;BME280;57712;48.752;11.348;2023-05-20T00:50:48;97601.75;;;13.05;100.00
70304;BME280;57712;48.752;11.348;2023-05-20T00:53:18;97600.97;;;13.04;100.00
70304;BME280;57712;48.752;11.348;2023-05-20T00:55:46;97589.97;;;13.04;100.00
70304;BME280;57712;48.752;11.348;2023-05-20T00:58:13;97596.25;;;13.05;100.00
70304;BME280;57712;48.752;11.348;2023-05-20T01:00:40;97590.47;;;13.15;100.00
70304;BME280;57712;48.752;11.348;2023-05-20T01:03:07;97591.31;;;13.12;100.00
70304;BME280;57712;48.752;11.348;2023-05-20T01:05:34;97595.47;;;13.20;100.00
70304;BME280;57712;48.752;11.348;2023-05-20T01:08:02;97588.75;;;13.21;100.00
70304;BME280;57712;48.752;11.348;2023-05-20T01:10:29;97597.38;;;13.23;100.00
70304;BME280;57712;48.752;11.348;2023-05-20T01:13:00;97588.75;;;13.21;100.00
70304;BME280;57712;48.752;11.348;2023-05-20T01:15:28;97587.03;;;13.27;100.00
70304;BME280;57712;48.752;11.348;2023-05-20T01:17:59;97590.09;;;13.29;100.00
70304;BME280;57712;48.752;11.348;2023-05-20T01:20:27;97588.13;;;13.30;100.00
70304;BME280;57712;48.752;11.348;2023-05-20T01:22:55;97589.22;;;13.33;100.00
70304;BME280;57712;48.752;11.348;2023-05-20T01:25:23;97583.84;;;13.29;100.00
70304;BME280;57712;48.752;11.348;2023-05-20T01:27:51;97584.16;;;13.31;100.00
70304;BME280;57712;48.752;11.348;2023-05-20T01:30:18;97581.22;;;13.38;100.00
70304;BME280;57712;48.752;11.348;2023-05-20T01:32:51;97587.50;;;13.39;100.00
70304;BME280;57712;48.752;11.348;2023-05-20T01:35:20;97577.56;;;13.28;100.00
70304;BME280;57712;48.752;11.348;2023-05-20T01:37:49;97583.59;;;13.23;100.00
70304;BME280;57712;48.752;11.348;2023-05-20T01:40:17;97573.09;;;13.18;100.00
70304;BME280;57712;48.752;11.348;2023-05-20T01:42:45;97572.44;;;13.14;100.00
70304;BME280;57712;48.752;11.348;2023-05-20T01:45:12;97572.44;;;13.14;100.00
70304;BME280;57712;48.752;11.348;2023-05-20T01:47:38;97574.16;;;13.08;100.00
70304;BME280;57712;48.752;11.348;2023-05-20T01:50:06;97567.00;;;13.11;100.00
70304;BME280;57712;48.752;11.348;2023-05-20T01:52:32;97563.72;;;13.16;100.00
70304;BME280;57712;48.752;11.348;2023-05-20T01:54:59;97562.72;;;13.10;100.00
70304;BME280;57712;48.752;11.348;2023-05-20T01:57:26;97560.84;;;13.07;100.00
70304;BME280;57712;48.752;11.348;2023-05-20T01:59:52;97557.66;;;13.08;100.00
70304;BME280;57712;48.752;11.348;2023-05-20T02:02:19;97557.13;;;13.13;100.00
70304;BME280;57712;48.752;11.348;2023-05-20T02:04:49;97568.22;;;13.10;100.00
70304;BME280;57712;48.752;11.348;2023-05-20T02:07:17;97566.34;;;13.07;100.00
70304;BME280;57712;48.752;11.348;2023-05-20T02:09:45;97564.78;;;13.06;100.00
70304;BME280;57712;48.752;11.348;2023-05-20T02:12:12;97569.53;;;13.05;100.00
70304;BME280;57712;48.752;11.348;2023-05-20T02:14:45;97561.72;;;13.04;100.00
70304;BME280;57712;48.752;11.348;2023-05-20T02:17:13;97554.91;;;13.08;100.00
70304;BME280;57712;48.752;11.348;2023-05-20T02:19:44;97561.13;;;12.96;100.00
70304;BME280;57712;48.752;11.348;2023-05-20T02:22:12;97561.22;;;12.92;100.00
70304;BME280;57712;48.752;11.348;2023-05-20T02:24:39;97553.59;;;12.84;100.00
70304;BME280;57712;48.752;11.348;2023-05-20T02:27:05;97557.53;;;12.83;100.00
70304;BME280;57712;48.752;11.348;2023-05-20T02:29:33;97559.09;;;12.84;100.00
70304;BME280;57712;48.752;11.348;2023-05-20T02:31:59;97544.13;;;12.85;100.00
70304;BME280;57712;48.752;11.348;2023-05-20T02:34:28;97542.22;;;12.82;100.00
70304;BME280;57712;48.752;11.348;2023-05-20T02:36:56;97544.63;;;12.80;100.00
70304;BME280;57712;48.752;11.348;2023-05-20T02:39:22;97533.75;;;12.76;100.00
70304;BME280;57712;48.752;11.348;2023-05-20T02:41:49;97545.19;;;12.75;100.00
70304;BME280;57712;48.752;11.348;2023-05-20T02:44:16;97540.56;;;12.71;100.00
70304;BME280;57712;48.752;11.348;2023-05-20T02:46:43;97541.50;;;12.65;100.00
70304;BME280;57712;48.752;11.348;2023-05-20T02:49:10;97542.94;;;12.69;100.00
70304;BME280;57712;48.752;11.348;2023-05-20T02:51:37;97547.00;;;12.65;100.00
70304;BME280;57712;48.752;11.348;2023-05-20T02:54:03;97551.00;;;12.60;100.00
70304;BME280;57712;48.752;11.348;2023-05-20T02:56:30;97552.22;;;12.59;100.00
70304;BME280;57712;48.752;11.348;2023-05-20T02:58:57;97548.81;;;12.55;100.00
70304;BME280;57712;48.752;11.348;2023-05-20T03:01:24;97557.22;;;12.64;100.00
70304;BME280;57712;48.752;11.348;2023-05-20T03:03:51;97555.84;;;12.56;100.00
70304;BME280;57712;48.752;11.348;2023-05-20T03:06:18;97547.44;;;12.63;100.00
70304;BME280;57712;48.752;11.348;2023-05-20T03:08:45;97545.63;;;12.57;100.00
70304;BME280;57712;48.752;11.348;2023-05-20T03:11:11;97547.59;;;12.56;100.00
70304;BME280;57712;48.752;11.348;2023-05-20T03:13:38;97552.66;;;12.58;100.00
70304;BME280;57712;48.752;11.348;2023-05-20T03:16:05;97553.44;;;12.58;100.00
70304;BME280;57712;48.752;11.348;2023-05-20T03:18:32;97551.22;;;12.53;100.00
70304;BME280;57712;48.752;11.348;2023-05-20T03:20:58;97543.97;;;12.59;100.00
70304;BME280;57712;48.752;11.348;2023-05-20T03:23:25;97546.66;;;12.63;100.00
70304;BME280;57712;48.752;11.348;2023-05-20T03:25:52;97545.38;;;12.51;100.00
70304;BME280;57712;48.752;11.348;2023-05-20T03:28:19;97542.09;;;12.56;100.00
70304;BME280;57712;48.752;11.348;2023-05-20T03:30:45;97542.38;;;12.62;100.00
70304;BME280;57712;48.752;11.348;2023-05-20T03:33:12;97552.38;;;12.68;100.00
70304;BME280;57712;48.752;11.348;2023-05-20T03:35:41;97550.84;;;12.67;100.00
70304;BME280;57712;48.752;11.348;2023-05-20T03:38:08;97549.97;;;12.70;100.00
70304;BME280;57712;48.752;11.348;2023-05-20T03:40:34;97554.63;;;12.74;100.00
70304;BME280;57712;48.752;11.348;2023-05-20T03:43:01;97553.09;;;12.73;100.00
70304;BME280;57712;48.752;11.348;2023-05-20T03:45:27;97564.59;;;12.84;100.00
70304;BME280;57712;48.752;11.348;2023-05-20T03:47:54;97558.72;;;12.82;100.00
70304;BME280;57712;48.752;11.348;2023-05-20T03:50:21;97552.81;;;12.83;100.00
70304;BME280;57712;48.752;11.348;2023-05-20T03:52:48;97557.44;;;12.86;100.00
70304;BME280;57712;48.752;11.348;2023-05-20T03:55:14;97560.53;;;12.88;100.00
70304;BME280;57712;48.752;11.348;2023-05-20T03:57:41;97561.22;;;12.92;100.00
70304;BME280;57712;48.752;11.348;2023-05-20T04:00:08;97553.88;;;13.02;100.00
70304;BME280;57712;48.752;11.348;2023-05-20T04:02:37;97561.59;;;13.07;100.00
70304;BME280;57712;48.752;11.348;2023-05-20T04:05:04;97563.59;;;13.07;100.00
70304;BME280;57712;48.752;11.348;2023-05-20T04:07:34;97553.25;;;13.11;100.00
70304;BME280;57712;48.752;11.348;2023-05-20T04:10:02;97571.22;;;13.15;100.00
70304;BME280;57712;48.752;11.348;2023-05-20T04:12:29;97568.66;;;13.24;100.00
70304;BME280;57712;48.752;11.348;2023-05-20T04:14:58;97562.78;;;13.22;100.00
70304;BME280;57712;48.752;11.348;2023-05-20T04:17:27;97562.88;;;13.48;100.00
70304;BME280;57712;48.752;11.348;2023-05-20T04:19:56;97561.84;;;13.83;100.00
70304;BME280;57712;48.752;11.348;2023-05-20T04:22:26;97561.53;;;14.07;100.00
70304;BME280;57712;48.752;11.348;2023-05-20T04:24:53;97551.28;;;14.20;100.00
70304;BME280;57712;48.752;11.348;2023-05-20T04:27:20;97557.91;;;14.10;100.00
70304;BME280;57712;48.752;11.348;2023-05-20T04:29:47;97556.56;;;14.02;100.00
70304;BME280;57712;48.752;11.348;2023-05-20T04:32:16;97559.44;;;14.11;100.00
70304;BME280;57712;48.752;11.348;2023-05-20T04:34:47;97554.13;;;14.04;100.00
70304;BME280;57712;48.752;11.348;2023-05-20T04:37:14;97559.00;;;14.00;100.00
70304;BME280;57712;48.752;11.348;2023-05-20T04:39:41;97557.53;;;13.95;100.00
70304;BME280;57712;48.752;11.348;2023-05-20T04:42:09;97550.41;;;13.98;100.00
70304;BME280;57712;48.752;11.348;2023-05-20T04:44:36;97540.03;;;14.02;100.00
70304;BME280;57712;48.752;11.348;2023-05-20T04:47:03;97542.47;;;14.00;100.00
70304;BME280;57712;48.752;11.348;2023-05-20T04:49:30;97543.81;;;14.08;100.00
70304;BME280;57712;48.752;11.348;2023-05-20T04:51:56;97551.72;;;14.06;100.00
70304;BME280;57712;48.752;11.348;2023-05-20T04:54:24;97546.63;;;14.17;100.00
70304;BME280;57712;48.752;11.348;2023-05-20T04:56:50;97559.88;;;14.22;100.00
70304;BME280;57712;48.752;11.348;2023-05-20T04:59:17;97559.09;;;14.34;100.00
70304;BME280;57712;48.752;11.348;2023-05-20T05:01:47;97556.13;;;14.41;100.00
70304;BME280;57712;48.752;11.348;2023-05-20T05:04:13;97540.16;;;14.49;100.00
70304;BME280;57712;48.752;11.348;2023-05-20T05:06:40;97547.41;;;14.56;100.00
70304;BME280;57712;48.752;11.348;2023-05-20T05:09:07;97533.06;;;14.61;100.00
70304;BME280;57712;48.752;11.348;2023-05-20T05:11:33;97538.97;;;15.07;100.00
70304;BME280;57712;48.752;11.348;2023-05-20T05:14:00;97536.06;;;15.23;100.00
70304;BME280;57712;48.752;11.348;2023-05-20T05:16:28;97530.69;;;15.50;100.00
70304;BME280;57712;48.752;11.348;2023-05-20T05:18:55;97531.81;;;15.53;100.00
70304;BME280;57712;48.752;11.348;2023-05-20T05:21:21;97527.31;;;15.46;100.00
70304;BME280;57712;48.752;11.348;2023-05-20T05:23:48;97528.72;;;15.73;100.00
70304;BME280;57712;48.752;11.348;2023-05-20T05:26:14;97537.97;;;15.57;100.00
70304;BME280;57712;48.752;11.348;2023-05-20T05:28:41;97537.31;;;15.31;100.00
70304;BME280;57712;48.752;11.348;2023-05-20T05:31:08;97531.16;;;15.49;100.00
70304;BME280;57712;48.752;11.348;2023-05-20T05:33:35;97528.22;;;15.96;100.00
70304;BME280;57712;48.752;11.348;2023-05-20T05:36:02;97530.91;;;15.78;100.00
70304;BME280;57712;48.752;11.348;2023-05-20T05:38:30;97528.19;;;15.87;100.00
70304;BME280;57712;48.752;11.348;2023-05-20T05:40:57;97517.03;;;15.69;100.00
70304;BME280;57712;48.752;11.348;2023-05-20T05:43:23;97521.13;;;15.86;100.00
70304;BME280;57712;48.752;11.348;2023-05-20T05:45:50;97512.47;;;16.06;100.00
70304;BME280;57712;48.752;11.348;2023-05-20T05:48:17;97514.81;;;16.26;100.00
70304;BME280;57712;48.752;11.348;2023-05-20T05:50:45;97508.22;;;16.32;100.00
70304;BME280;57712;48.752;11.348;2023-05-20T05:53:12;97501.44;;;16.24;100.00
70304;BME280;57712;48.752;11.348;2023-05-20T05:55:38;97505.69;;;16.07;100.00
70304;BME280;57712;48.752;11.348;2023-05-20T05:58:05;97509.69;;;16.15;100.00
70304;BME280;57712;48.752;11.348;2023-05-20T06:00:32;97502.78;;;16.10;100.00
70304;BME280;57712;48.752;11.348;2023-05-20T06:02:59;97505.75;;;16.16;100.00
70304;BME280;57712;48.752;11.348;2023-05-20T06:05:26;97500.97;;;16.16;100.00
70304;BME280;57712;48.752;11.348;2023-05-20T06:07:55;97505.66;;;16.56;100.00
70304;BME280;57712;48.752;11.348;2023-05-20T06:10:21;97503.31;;;16.27;100.00
70304;BME280;57712;48.752;11.348;2023-05-20T06:12:48;97506.25;;;16.42;100.00
70304;BME280;57712;48.752;11.348;2023-05-20T06:15:15;97501.34;;;16.37;100.00
70304;BME280;57712;48.752;11.348;2023-05-20T06:17:42;97502.25;;;16.43;100.00
70304;BME280;57712;48.752;11.348;2023-05-20T06:20:08;97504.44;;;16.66;100.00
70304;BME280;57712;48.752;11.348;2023-05-20T06:22:35;97497.28;;;16.78;100.00
70304;BME280;57712;48.752;11.348;2023-05-20T06:25:02;97502.50;;;16.85;100.00
70304;BME280;57712;48.752;11.348;2023-05-20T06:27:29;97506.63;;;16.71;100.00
70304;BME280;57712;48.752;11.348;2023-05-20T06:29:55;97513.88;;;16.87;100.00
70304;BME280;57712;48.752;11.348;2023-05-20T06:32:22;97506.97;;;16.83;100.00
70304;BME280;57712;48.752;11.348;2023-05-20T06:34:49;97506.63;;;16.71;100.00
70304;BME280;57712;48.752;11.348;2023-05-20T06:37:16;97501.03;;;16.44;100.00
70304;BME280;57712;48.752;11.348;2023-05-20T06:39:43;97507.25;;;16.76;100.00
70304;BME280;57712;48.752;11.348;2023-05-20T06:42:10;97499.56;;;16.98;100.00
70304;BME280;57712;48.752;11.348;2023-05-20T06:44:36;97505.56;;;17.06;100.00
70304;BME280;57712;48.752;11.348;2023-05-20T06:47:03;97502.47;;;17.31;100.00
70304;BME280;57712;48.752;11.348;2023-05-20T06:49:30;97501.84;;;17.45;100.00
70304;BME280;57712;48.752;11.348;2023-05-20T06:51:57;97495.06;;;17.37;100.00
70304;BME280;57712;48.752;11.348;2023-05-20T06:54:23;97509.97;;;17.40;100.00
70304;BME280;57712;48.752;11.348;2023-05-20T06:56:50;97504.44;;;17.40;100.00
70304;BME280;57712;48.752;11.348;2023-05-20T06:59:17;97503.53;;;17.34;100.00
70304;BME280;57712;48.752;11.348;2023-05-20T07:01:43;97498.00;;;17.43;100.00
70304;BME280;57712;48.752;11.348;2023-05-20T07:04:10;97496.06;;;17.85;100.00
70304;BME280;57712;48.752;11.348;2023-05-20T07:06:37;97493.75;;;17.84;100.00
70304;BME280;57712;48.752;11.348;2023-05-20T07:09:04;97489.00;;;17.66;100.00
70304;BME280;57712;48.752;11.348;2023-05-20T07:11:30;97488.13;;;18.02;100.00
70304;BME280;57712;48.752;11.348;2023-05-20T07:13:57;97487.34;;;18.02;100.00
70304;BME280;57712;48.752;11.348;2023-05-20T07:16:24;97483.03;;;18.01;100.00
70304;BME280;57712;48.752;11.348;2023-05-20T07:18:51;97483.16;;;17.73;100.00
70304;BME280;57712;48.752;11.348;2023-05-20T07:21:18;97474.53;;;18.13;100.00
70304;BME280;57712;48.752;11.348;2023-05-20T07:23:44;97480.47;;;18.21;100.00
70304;BME280;57712;48.752;11.348;2023-05-20T07:26:11;97481.63;;;17.72;100.00
70304;BME280;57712;48.752;11.348;2023-05-20T07:28:38;97473.34;;;18.29;100.00
70304;BME280;57712;48.752;11.348;2023-05-20T07:31:05;97477.94;;;18.32;100.00
70304;BME280;57712;48.752;11.348;2023-05-20T07:33:32;97474.16;;;17.97;100.00
70304;BME280;57712;48.752;11.348;2023-05-20T07:35:58;97470.09;;;18.07;100.00
70304;BME280;57712;48.752;11.348;2023-05-20T07:38:25;97473.63;;;18.07;100.00
70304;BME280;57712;48.752;11.348;2023-05-20T07:40:52;97472.53;;;18.38;100.00
70304;BME280;57712;48.752;11.348;2023-05-20T07:43:20;97484.34;;;18.48;100.00
70304;BME280;57712;48.752;11.348;2023-05-20T07:45:47;97475.72;;;18.45;100.00
70304;BME280;57712;48.752;11.348;2023-05-20T07:48:14;97475.00;;;18.60;100.00
70304;BME280;57712;48.752;11.348;2023-05-20T07:50:41;97460.44;;;18.74;100.00
70304;BME280;57712;48.752;11.348;2023-05-20T07:53:07;97463.44;;;18.85;100.00
70304;BME280;57712;48.752;11.348;2023-05-20T07:55:34;97461.75;;;19.02;100.00
70304;BME280;57712;48.752;11.348;2023-05-20T07:58:02;97462.34;;;19.21;100.00
70304;BME280;57712;48.752;11.348;2023-05-20T08:00:30;97456.03;;;19.21;100.00
70304;BME280;57712;48.752;11.348;2023-05-20T08:02:56;97466.78;;;19.28;100.00
70304;BME280;57712;48.752;11.348;2023-05-20T08:05:23;97466.97;;;19.39;100.00
70304;BME280;57712;48.752;11.348;2023-05-20T08:07:50;97454.22;;;19.32;100.00
70304;BME280;57712;48.752;11.348;2023-05-20T08:10:17;97460.56;;;18.94;100.00
70304;BME280;57712;48.752;11.348;2023-05-20T08:12:45;97457.75;;;19.33;100.00
70304;BME280;57712;48.752;11.348;2023-05-20T08:15:12;97455.44;;;19.46;100.00
70304;BME280;57712;48.752;11.348;2023-05-20T08:17:38;97461.53;;;18.91;100.00
70304;BME280;57712;48.752;11.348;2023-05-20T08:20:05;97463.75;;;19.17;100.00
70304;BME280;57712;48.752;11.348;2023-05-20T08:22:34;97466.53;;;19.17;100.00
70304;BME280;57712;48.752;11.348;2023-05-20T08:25:06;97461.22;;;19.57;100.00
70304;BME280;57712;48.752;11.348;2023-05-20T08:27:34;97455.66;;;19.57;100.00
70304;BME280;57712;48.752;11.348;2023-05-20T08:30:02;97454.06;;;20.01;100.00
70304;BME280;57712;48.752;11.348;2023-05-20T08:32:29;97448.06;;;20.23;100.00
70304;BME280;57712;48.752;11.348;2023-05-20T08:34:56;97455.56;;;20.16;100.00
70304;BME280;57712;48.752;11.348;2023-05-20T08:37:22;97449.38;;;20.27;100.00
70304;BME280;57712;48.752;11.348;2023-05-20T08:39:49;97445.09;;;19.91;100.00
70304;BME280;57712;48.752;11.348;2023-05-20T08:42:20;97451.41;;;19.77;100.00
70304;BME280;57712;48.752;11.348;2023-05-20T08:44:50;97444.06;;;19.74;100.00
70304;BME280;57712;48.752;11.348;2023-05-20T08:47:19;97449.84;;;20.05;100.00
70304;BME280;57712;48.752;11.348;2023-05-20T08:49:48;97435.03;;;20.14;100.00
70304;BME280;57712;48.752;11.348;2023-05-20T08:52:20;97437.53;;;20.67;100.00
70304;BME280;57712;48.752;11.348;2023-05-20T08:54:48;97440.81;;;20.92;100.00
70304;BME280;57712;48.752;11.348;2023-05-20T08:57:15;97441.81;;;20.89;100.00
70304;BME280;57712;48.752;11.348;2023-05-20T08:59:44;97440.56;;;20.90;99.63
70304;BME280;57712;48.752;11.348;2023-05-20T09:02:13;97433.31;;;20.98;100.00
70304;BME280;57712;48.752;11.348;2023-05-20T09:04:40;97438.56;;;21.16;100.00
70304;BME280;57712;48.752;11.348;2023-05-20T09:07:07;97438.94;;;21.55;100.00
70304;BME280;57712;48.752;11.348;2023-05-20T09:09:34;97451.22;;;20.91;100.00
70304;BME280;57712;48.752;11.348;2023-05-20T09:12:01;97445.03;;;21.28;100.00
70304;BME280;57712;48.752;11.348;2023-05-20T09:14:29;97439.09;;;21.46;100.00
70304;BME280;57712;48.752;11.348;2023-05-20T09:17:04;97436.63;;;21.02;97.51
70304;BME280;57712;48.752;11.348;2023-05-20T09:19:31;97424.47;;;21.51;100.00
70304;BME280;57712;48.752;11.348;2023-05-20T09:21:59;97429.69;;;21.38;100.00
70304;BME280;57712;48.752;11.348;2023-05-20T09:24:26;97431.00;;;21.22;100.00
70304;BME280;57712;48.752;11.348;2023-05-20T09:26:52;97420.75;;;21.34;100.00
70304;BME280;57712;48.752;11.348;2023-05-20T09:29:19;97433.66;;;21.31;100.00
70304;BME280;57712;48.752;11.348;2023-05-20T09:31:48;97433.34;;;20.57;100.00
70304;BME280;57712;48.752;11.348;2023-05-20T09:34:15;97425.75;;;20.78;100.00
70304;BME280;57712;48.752;11.348;2023-05-20T09:36:43;97427.75;;;20.98;100.00
70304;BME280;57712;48.752;11.348;2023-05-20T09:39:13;97437.56;;;21.19;100.00
70304;BME280;57712;48.752;11.348;2023-05-20T09:41:48;97436.28;;;21.41;100.00
70304;BME280;57712;48.752;11.348;2023-05-20T09:44:18;97433.22;;;21.39;100.00
70304;BME280;57712;48.752;11.348;2023-05-20T09:46:46;97423.34;;;21.38;100.00
70304;BME280;57712;48.752;11.348;2023-05-20T09:49:13;97426.41;;;21.71;100.00
70304;BME280;57712;48.752;11.348;2023-05-20T09:51:40;97424.50;;;21.88;98.87
70304;BME280;57712;48.752;11.348;2023-05-20T09:54:08;97423.31;;;22.01;99.07
70304;BME280;57712;48.752;11.348;2023-05-20T09:56:37;97420.78;;;22.45;100.00
70304;BME280;57712;48.752;11.348;2023-05-20T09:59:05;97415.69;;;22.50;92.74
70304;BME280;57712;48.752;11.348;2023-05-20T10:01:32;97405.31;;;22.02;93.49
70304;BME280;57712;48.752;11.348;2023-05-20T10:03:59;97405.25;;;23.21;90.40
70304;BME280;57712;48.752;11.348;2023-05-20T10:11:44;97407.31;;;23.82;73.05
70304;BME280;57712;48.752;11.348;2023-05-20T10:14:40;97401.22;;;23.55;77.59
70304;BME280;57712;48.752;11.348;2023-05-20T10:19:40;97390.72;;;24.12;86.20
70304;BME280;57712;48.752;11.348;2023-05-20T10:22:09;97390.44;;;24.15;78.03
70304;BME280;57712;48.752;11.348;2023-05-20T10:24:39;97382.91;;;23.88;77.55
70304;BME280;57712;48.752;11.348;2023-05-20T10:27:08;97374.22;;;23.86;72.29
70304;BME280;57712;48.752;11.348;2023-05-20T10:29:55;97390.78;;;23.17;83.50
70304;BME280;57712;48.752;11.348;2023-05-20T10:32:27;97384.47;;;23.67;75.59
70304;BME280;57712;48.752;11.348;2023-05-20T10:34:59;97375.03;;;23.42;70.65
70304;BME280;57712;48.752;11.348;2023-05-20T10:37:30;97370.69;;;23.80;81.85
70304;BME280;57712;48.752;11.348;2023-05-20T10:42:33;97377.22;;;22.76;91.29
70304;BME280;57712;48.752;11.348;2023-05-20T10:45:00;97370.59;;;22.68;87.76
70304;BME280;57712;48.752;11.348;2023-05-20T10:47:27;97374.41;;;22.76;83.75
70304;BME280;57712;48.752;11.348;2023-05-20T10:49:54;97369.53;;;22.60;83.62
70304;BME280;57712;48.752;11.348;2023-05-20T10:52:20;97365.84;;;22.96;79.22
70304;BME280;57712;48.752;11.348;2023-05-20T10:54:58;97367.41;;;23.48;78.37
70304;BME280;57712;48.752;11.348;2023-05-20T10:57:26;97364.91;;;24.47;74.56
70304;BME280;57712;48.752;11.348;2023-05-20T10:59:54;97352.41;;;23.79;69.09
70304;BME280;57712;48.752;11.348;2023-05-20T11:02:21;97358.00;;;23.62;72.87
70304;BME280;57712;48.752;11.348;2023-05-20T11:04:54;97353.94;;;23.57;70.37
70304;BME280;57712;48.752;11.348;2023-05-20T11:07:30;97337.25;;;24.21;65.55
70304;BME280;57712;48.752;11.348;2023-05-20T11:09:57;97337.00;;;24.19;65.85
70304;BME280;57712;48.752;11.348;2023-05-20T11:12:25;97341.53;;;24.39;68.26
70304;BME280;57712;48.752;11.348;2023-05-20T11:14:52;97342.25;;;24.92;66.41
70304;BME280;57712;48.752;11.348;2023-05-20T11:17:19;97336.44;;;25.25;59.54
70304;BME280;57712;48.752;11.348;2023-05-20T11:19:46;97330.56;;;25.53;60.24
70304;BME280;57712;48.752;11.348;2023-05-20T11:22:15;97344.66;;;25.48;56.93
70304;BME280;57712;48.752;11.348;2023-05-20T11:24:42;97339.16;;;24.54;62.05
70304;BME280;57712;48.752;11.348;2023-05-20T11:27:09;97352.25;;;24.35;56.65
70304;BME280;57712;48.752;11.348;2023-05-20T11:29:36;97331.66;;;24.15;57.95
70304;BME280;57712;48.752;11.348;2023-05-20T11:32:04;97331.91;;;24.17;58.81
70304;BME280;57712;48.752;11.348;2023-05-20T11:34:36;97340.78;;;24.33;59.49
70304;BME280;57712;48.752;11.348;2023-05-20T11:37:07;97330.94;;;24.67;62.86
70304;BME280;57712;48.752;11.348;2023-05-20T11:39:36;97331.81;;;24.51;58.82
70304;BME280;57712;48.752;11.348;2023-05-20T11:42:03;97329.78;;;24.87;60.82
70304;BME280;57712;48.752;11.348;2023-05-20T11:44:31;97322.19;;;24.41;60.39
70304;BME280;57712;48.752;11.348;2023-05-20T11:47:00;97321.50;;;25.12;61.63
70304;BME280;57712;48.752;11.348;2023-05-20T11:49:27;97327.81;;;24.82;63.31
70304;BME280;57712;48.752;11.348;2023-05-20T11:51:55;97310.03;;;24.16;62.94
70304;BME280;57712;48.752;11.348;2023-05-20T11:54:24;97314.72;;;23.91;64.26
70304;BME280;57712;48.752;11.348;2023-05-20T11:56:53;97319.38;;;23.60;64.23
70304;BME280;57712;48.752;11.348;2023-05-20T11:59:22;97305.13;;;23.47;66.69
70304;BME280;57712;48.752;11.348;2023-05-20T12:01:49;97312.78;;;23.08;65.59
70304;BME280;57712;48.752;11.348;2023-05-20T12:04:16;97321.66;;;23.06;65.35
70304;BME280;57712;48.752;11.348;2023-05-20T12:06:44;97309.19;;;23.13;63.43
70304;BME280;57712;48.752;11.348;2023-05-20T12:09:11;97308.16;;;23.49;63.87
70304;BME280;57712;48.752;11.348;2023-05-20T12:11:39;97315.06;;;23.15;66.71
70304;BME280;57712;48.752;11.348;2023-05-20T12:14:08;97310.69;;;23.70;67.35
70304;BME280;57712;48.752;11.348;2023-05-20T12:16:36;97316.06;;;23.23;65.61
70304;BME280;57712;48.752;11.348;2023-05-20T12:19:03;97309.72;;;23.11;69.71
70304;BME280;57712;48.752;11.348;2023-05-20T12:21:30;97313.53;;;23.14;68.00
70304;BME280;57712;48.752;11.348;2023-05-20T12:23:59;97308.44;;;22.95;68.35
70304;BME280;57712;48.752;11.348;2023-05-20T12:26:28;97309.22;;;23.35;73.23
70304;BME280;57712;48.752;11.348;2023-05-20T12:28:55;97318.06;;;23.73;76.04
70304;BME280;57712;48.752;11.348;2023-05-20T12:31:23;97322.41;;;23.40;69.70
70304;BME280;57712;48.752;11.348;2023-05-20T12:33:50;97312.75;;;23.30;70.23
70304;BME280;57712;48.752;11.348;2023-05-20T12:36:16;97298.78;;;23.30;69.57
70304;BME280;57712;48.752;11.348;2023-05-20T12:38:45;97307.69;;;23.23;70.86
70304;BME280;57712;48.752;11.348;2023-05-20T12:41:12;97301.56;;;23.64;69.61
70304;BME280;57712;48.752;11.348;2023-05-20T12:43:39;97306.69;;;23.15;72.32
70304;BME280;57712;48.752;11.348;2023-05-20T12:46:06;97308.72;;;23.25;74.57
70304;BME280;57712;48.752;11.348;2023-05-20T12:48:32;97298.78;;;23.41;74.77
70304;BME280;57712;48.752;11.348;2023-05-20T12:50:59;97294.94;;;23.55;71.31
70304;BME280;57712;48.752;11.348;2023-05-20T12:53:26;97294.44;;;23.40;77.16
70304;BME280;57712;48.752;11.348;2023-05-20T12:55:52;97294.97;;;23.33;77.37